Time;durP1;ratioP1;P1;durP2;ratioP2;P2;SDS_P1;SDS_P2;PMS_P1;PMS_P2;Temp;Humidity;BMP_temperature;BMP_pressure;BME280_temperature;BME280_humidity;BME280_pressure;Samples;Min_cycle;Max_cycle;Signal;HPM_P1;HPM_P2
2022/03/23 00:01:24;;;;;;;24.75;9.52;;;;;;;9.09;30.66;99571.84;4426185;32;20152;-75
2022/03/23 00:03:52;;;;;;;21.42;8.50;;;;;;;9.49;30.12;99572.16;4425711;32;20089;-75
2022/03/23 00:06:19;;;;;;;18.60;8.40;;;;;;;9.02;31.15;99561.63;4426127;32;20397;-75
2022/03/23 00:08:47;;;;;;;20.85;8.95;;;;;;;9.44;30.62;99570.50;4425831;32;20137;-75
2022/03/23 00:11:14;;;;;;;19.87;8.50;;;;;;;10.18;29.73;99558.19;4425754;32;20093;-75
2022/03/23 00:13:41;;;;;;;18.30;8.30;;;;;;;10.02;30.52;99554.19;4425878;32;20100;-75
2022/03/23 00:16:08;;;;;;;;;;;;;;;10.20;29.87;99558.16;4426411;32;20464;-75
2022/03/23 00:18:35;;;;;;;19.37;7.82;;;;;;;9.83;30.35;99551.87;4425818;32;19977;-75
2022/03/23 00:21:01;;;;;;;;;;;;;;;9.90;29.71;99549.22;4426309;32;20101;-75
2022/03/23 00:23:28;;;;;;;20.40;7.53;;;;;;;10.09;29.61;99550.59;4425958;32;19968;-75
2022/03/23 00:25:55;;;;;;;15.77;7.62;;;;;;;11.03;28.41;99555.75;4425507;32;20475;-75
2022/03/23 00:28:23;;;;;;;;;;;;;;;11.86;26.89;99552.22;4426281;32;20107;-75
2022/03/23 00:30:50;;;;;;;16.42;7.78;;;;;;;11.24;27.71;99559.63;4425927;32;19991;-75
2022/03/23 00:33:28;;;;;;;18.58;7.97;;;;;;;11.19;28.01;99558.87;4425995;32;20160;-75
2022/03/23 00:35:55;;;;;;;;;;;;;;;11.12;28.25;99554.72;4426175;32;20123;-75
2022/03/23 00:38:22;;;;;;;17.92;7.53;;;;;;;11.13;27.88;99553.84;4425640;32;20021;-75
2022/03/23 00:40:50;;;;;;;17.90;8.25;;;;;;;10.28;29.17;99548.59;4425723;32;20102;-75
2022/03/23 00:43:17;;;;;;;17.75;7.70;;;;;;;10.83;28.67;99552.72;4424624;32;20103;-75
2022/03/23 00:45:44;;;;;;;18.30;7.90;;;;;;;11.09;28.01;99550.47;4425409;32;20157;-75
2022/03/23 00:48:11;;;;;;;16.48;7.60;;;;;;;11.55;27.16;99555.47;4425883;32;20154;-75
2022/03/23 00:50:38;;;;;;;;;;;;;;;11.39;27.30;99550.69;4425957;32;20167;-75
2022/03/23 00:53:06;;;;;;;16.85;7.93;;;;;;;11.92;26.27;99549.50;4424425;32;20027;-75
2022/03/23 00:55:33;;;;;;;17.23;8.05;;;;;;;11.71;26.82;99548.22;4425771;32;20078;-75
2022/03/23 00:57:59;;;;;;;18.85;8.25;;;;;;;11.28;27.15;99550.94;4425780;32;20102;-75
2022/03/23 01:00:26;;;;;;;;;;;;;;;11.23;27.26;99555.34;4425645;32;20097;-75
2022/03/23 01:02:53;;;;;;;18.25;7.82;;;;;;;11.68;26.62;99544.84;4425709;32;19985;-75
2022/03/23 01:05:20;;;;;;;17.77;7.55;;;;;;;12.52;25.68;99547.94;4425596;32;20229;-75
2022/03/23 01:07:47;;;;;;;16.58;6.93;;;;;;;12.96;25.36;99544.97;4425414;32;20090;-75
2022/03/23 01:10:15;;;;;;;21.10;8.63;;;;;;;12.59;26.13;99534.81;4425352;32;20161;-75
2022/03/23 01:12:44;;;;;;;18.83;7.75;;;;;;;11.38;27.47;99548.97;4425791;32;20089;-75
2022/03/23 01:15:12;;;;;;;18.83;7.80;;;;;;;11.31;27.68;99550.87;4425230;32;20090;-75
2022/03/23 01:17:39;;;;;;;21.17;7.68;;;;;;;10.75;28.56;99550.31;4425660;32;20474;-75
2022/03/23 01:20:08;;;;;;;;;;;;;;;9.37;29.73;99549.16;4425747;32;20097;-75
2022/03/23 01:22:36;;;;;;;18.30;8.32;;;;;;;11.52;27.40;99549.53;4425708;32;20489;-75
2022/03/23 01:25:05;;;;;;;19.08;8.13;;;;;;;12.42;26.17;99547.34;4424869;32;20073;-75
2022/03/23 01:27:32;;;;;;;22.90;8.60;;;;;;;11.14;27.89;99543.47;4424029;32;20464;-75
2022/03/23 01:29:59;;;;;;;18.35;7.80;;;;;;;10.88;28.19;99549.19;4425438;32;20093;-75
2022/03/23 01:32:25;;;;;;;;;;;;;;;11.33;27.79;99537.91;4425862;32;20082;-75
2022/03/23 01:34:52;;;;;;;17.65;8.55;;;;;;;11.54;27.35;99537.41;4425284;32;19970;-75
2022/03/23 01:37:19;;;;;;;19.85;8.68;;;;;;;11.46;28.03;99531.56;4425492;32;20152;-75
2022/03/23 01:39:46;;;;;;;;;;;;;;;10.38;29.80;99534.66;4425732;32;20204;-75
2022/03/23 01:42:13;;;;;;;19.02;7.65;;;;;;;10.81;29.09;99534.69;4425175;32;20382;-75
2022/03/23 01:44:40;;;;;;;21.45;7.32;;;;;;;9.87;29.29;99529.47;4425427;32;20137;-75
2022/03/23 01:47:10;;;;;;;15.43;7.10;;;;;;;8.54;31.45;99533.88;4425488;32;20145;-75
2022/03/23 01:49:43;;;;;;;16.25;7.25;;;;;;;7.41;32.81;99528.81;4425024;32;20144;-75
2022/03/23 01:52:12;;;;;;;18.60;7.37;;;;;;;6.84;33.64;99533.41;4425309;32;20086;-75
2022/03/23 01:54:40;;;;;;;18.52;7.18;;;;;;;7.43;32.56;99521.94;4425272;32;20074;-75
2022/03/23 01:57:09;;;;;;;18.87;7.32;;;;;;;8.38;31.17;99527.19;4423918;32;20115;-75
2022/03/23 01:59:36;;;;;;;16.52;7.07;;;;;;;8.77;30.90;99520.75;4425271;32;20093;-75
2022/03/23 02:02:05;;;;;;;20.35;8.00;;;;;;;8.12;32.10;99519.69;4424191;32;20484;-75
2022/03/23 02:04:33;;;;;;;20.35;8.80;;;;;;;7.89;32.97;99516.50;4424980;32;20112;-75
2022/03/23 02:07:00;;;;;;;17.75;8.25;;;;;;;8.20;33.12;99522.22;4425223;32;20140;-75
2022/03/23 02:09:28;;;;;;;17.62;7.43;;;;;;;8.95;31.89;99519.69;4424789;32;20086;-75
2022/03/23 02:11:55;;;;;;;15.18;6.70;;;;;;;8.99;31.23;99516.19;4424025;32;20124;-75
2022/03/23 02:14:22;;;;;;;19.62;8.18;;;;;;;8.81;31.29;99521.53;4424172;32;20073;-75
2022/03/23 02:16:51;;;;;;;29.15;12.68;;;;;;;8.77;31.46;99510.44;4424760;32;20086;-75
2022/03/23 02:19:20;;;;;;;24.30;10.68;;;;;;;8.63;32.66;99512.34;4425112;32;20159;-75
2022/03/23 02:21:50;;;;;;;24.90;10.40;;;;;;;8.33;33.37;99511.78;4425358;32;20145;-75
2022/03/23 02:24:22;;;;;;;27.13;12.30;;;;;;;8.66;32.61;99508.00;4424802;32;20108;-75
2022/03/23 02:26:48;;;;;;;23.65;10.30;;;;;;;9.27;31.75;99514.94;4425142;32;20120;-75
2022/03/23 02:29:16;;;;;;;21.83;9.65;;;;;;;10.05;30.30;99510.28;4425029;32;20156;-75
2022/03/23 02:31:42;;;;;;;37.05;15.70;;;;;;;9.84;30.32;99512.34;4424772;32;20085;-74
2022/03/23 02:34:09;;;;;;;30.70;12.90;;;;;;;8.90;32.15;99512.00;4425043;32;20515;-75
2022/03/23 02:36:36;;;;;;;34.63;13.50;;;;;;;8.59;32.87;99505.50;4422523;32;20116;-75
2022/03/23 02:39:03;;;;;;;30.73;13.00;;;;;;;8.09;33.93;99504.31;4424593;32;20108;-75
2022/03/23 02:41:31;;;;;;;;;;;;;;;7.62;35.12;99502.97;4424064;32;20612;-75
2022/03/23 02:43:59;;;;;;;39.90;13.85;;;;;;;8.99;32.79;99501.59;4424843;32;19979;-75
2022/03/23 02:46:28;;;;;;;35.70;14.65;;;;;;;9.14;32.13;99500.50;4424514;32;20149;-75
2022/03/23 02:48:55;;;;;;;25.05;10.95;;;;;;;8.91;32.63;99505.13;4424760;32;20554;-75
2022/03/23 02:51:22;;;;;;;;;;;;;;;9.30;31.81;99502.88;4424883;32;20099;-75
2022/03/23 03:02:38;;;;;;;35.88;14.02;;;;;;;9.50;31.63;99494.00;4424724;32;20085;-75
2022/03/23 03:05:06;;;;;;;32.67;14.25;;;;;;;9.31;32.36;99496.84;4424617;32;20108;-75
2022/03/23 03:10:25;;;;;;;21.70;9.93;;;;;;;8.80;33.24;99488.97;4423298;32;20097;-75
2022/03/23 03:12:52;;;;;;;23.55;9.55;;;;;;;10.02;30.89;99489.72;4424206;32;20188;-75
2022/03/23 03:15:20;;;;;;;23.83;9.77;;;;;;;9.37;31.84;99489.06;4424372;32;20466;-75
2022/03/23 03:17:47;;;;;;;25.25;11.57;;;;;;;8.62;32.88;99488.34;4424481;32;20153;-75
2022/03/23 03:20:15;;;;;;;24.48;10.20;;;;;;;8.57;33.39;99490.09;4423981;32;20094;-75
2022/03/23 03:22:43;;;;;;;25.10;10.70;;;;;;;9.02;32.51;99486.97;4424442;32;20078;-75
2022/03/23 03:25:14;;;;;;;23.55;9.95;;;;;;;9.34;32.27;99491.66;4424262;32;20411;-75
2022/03/23 03:27:42;;;;;;;21.87;9.60;;;;;;;10.20;30.29;99486.78;4424034;32;20093;-75
2022/03/23 03:30:14;;;;;;;24.33;10.20;;;;;;;10.20;30.08;99486.78;4424261;32;20158;-75
2022/03/23 03:32:42;;;;;;;30.88;11.57;;;;;;;9.88;30.98;99484.78;4424207;32;20102;-75
2022/03/23 03:35:12;;;;;;;29.58;12.60;;;;;;;9.93;31.00;99480.41;4423741;32;20078;-74
2022/03/23 03:37:40;;;;;;;29.55;13.05;;;;;;;9.59;31.46;99480.13;4423043;32;20492;-74
2022/03/23 03:40:08;;;;;;;28.98;12.15;;;;;;;9.15;32.47;99483.37;4423960;32;20404;-75
2022/03/23 03:42:36;;;;;;;32.45;13.75;;;;;;;9.05;32.59;99479.22;4423730;32;20420;-75
2022/03/23 03:45:05;;;;;;;26.80;13.02;;;;;;;8.00;34.35;99474.41;4422781;32;20156;-75
2022/03/23 03:47:32;;;;;;;27.42;11.65;;;;;;;7.18;36.28;99483.59;4424135;32;20416;-75
2022/03/23 03:49:59;;;;;;;30.50;12.68;;;;;;;8.18;34.74;99481.06;4426117;32;20125;-75
2022/03/23 03:52:26;;;;;;;23.25;10.60;;;;;;;8.70;33.58;99476.22;4425186;32;20086;-75
2022/03/23 03:54:53;;;;;;;25.00;11.75;;;;;;;8.94;32.94;99477.63;4425799;32;20094;-75
2022/03/23 03:57:20;;;;;;;;;;;;;;;9.16;32.46;99470.47;4426397;32;20148;-75
2022/03/23 03:59:47;;;;;;;25.95;11.57;;;;;;;8.53;33.41;99479.88;4426208;32;19982;-75
2022/03/23 04:02:14;;;;;;;;;;;;;;;8.81;33.26;99480.38;4426116;32;20147;-75
2022/03/23 04:04:41;;;;;;;31.10;11.10;;;;;;;8.40;33.75;99482.59;4425962;32;19965;-74
2022/03/23 04:07:08;;;;;;;30.52;11.40;;;;;;;8.48;33.65;99482.47;4426154;32;20170;-75
2022/03/23 04:09:35;;;;;;;26.95;11.63;;;;;;;8.79;33.19;99485.53;4425575;32;20112;-75
2022/03/23 04:12:02;;;;;;;;;;;;;;;8.82;32.92;99482.91;4425238;32;20097;-75
2022/03/23 04:14:29;;;;;;;22.30;9.07;;;;;;;8.01;34.59;99480.38;4425028;32;19979;-75
2022/03/23 04:16:56;;;;;;;;;;;;;;;8.93;32.44;99486.22;4425905;32;20405;-75
2022/03/23 04:19:23;;;;;;;19.42;7.55;;;;;;;8.80;32.79;99484.66;4426026;32;19977;-74
2022/03/23 04:21:50;;;;;;;24.67;9.00;;;;;;;9.52;30.71;99486.22;4425923;32;20145;-75
2022/03/23 04:24:17;;;;;;;;;;;;;;;9.41;30.99;99486.41;4425848;32;20074;-75
2022/03/23 04:26:46;;;;;;;21.17;9.25;;;;;;;9.66;30.62;99488.56;4426038;32;19989;-74
2022/03/23 04:29:14;;;;;;;23.85;10.15;;;;;;;9.32;31.09;99488.25;4425935;32;20449;-75
2022/03/23 04:31:40;;;;;;;24.00;10.13;;;;;;;9.83;30.47;99487.44;4425697;32;20084;-75
2022/03/23 04:34:08;;;;;;;28.95;12.75;;;;;;;9.79;30.76;99492.69;4425942;32;20078;-75
2022/03/23 04:36:35;;;;;;;28.23;11.52;;;;;;;9.32;31.28;99496.84;4425569;32;20112;-75
2022/03/23 04:39:02;;;;;;;29.87;12.07;;;;;;;9.55;31.07;99494.75;4425846;32;20089;-75
2022/03/23 04:41:29;;;;;;;31.98;14.27;;;;;;;9.21;32.01;99494.41;4425841;32;20133;-75
2022/03/23 04:43:56;;;;;;;;;;;;;;;9.81;31.15;99490.94;4425785;32;20089;-75
2022/03/23 04:46:23;;;;;;;35.90;14.20;;;;;;;8.94;32.45;99492.22;4425782;32;19977;-75
2022/03/23 04:48:50;;;;;;;40.33;13.43;;;;;;;9.34;32.04;99489.06;4425712;32;20093;-76
2022/03/23 04:51:16;;;;;;;;;;;;;;;8.97;32.66;99493.03;4425857;32;20081;-75
2022/03/23 04:53:43;;;;;;;30.23;12.80;;;;;;;8.90;32.69;99491.41;4425951;32;19983;-75
2022/03/23 04:56:11;;;;;;;;;;;;;;;9.10;32.42;99482.56;4426011;32;20101;-75
2022/03/23 04:58:37;;;;;;;36.30;15.25;;;;;;;9.37;32.14;99491.63;4424039;32;19977;-75
2022/03/23 05:01:05;;;;;;;;;;;;;;;9.63;31.55;99488.63;4425424;32;20088;-75
2022/03/23 05:03:32;;;;;;;40.83;15.65;;;;;;;9.64;31.61;99493.75;4425754;32;20368;-75
2022/03/23 05:05:59;;;;;;;;;;;;;;;10.17;30.97;99501.47;4425669;32;20105;-75
2022/03/23 05:08:26;;;;;;;34.50;14.68;;;;;;;9.79;31.17;99498.69;4425799;32;19996;-75
2022/03/23 05:10:53;;;;;;;37.22;15.25;;;;;;;9.97;31.20;99499.22;4425414;32;20151;-75
2022/03/23 05:13:20;;;;;;;34.15;16.05;;;;;;;10.06;31.27;99501.66;4425293;32;20134;-75
2022/03/23 05:15:47;;;;;;;;;;;;;;;10.27;30.94;99506.47;4425907;32;20150;-75
2022/03/23 05:18:14;;;;;;;32.25;12.20;;;;;;;10.27;30.26;99500.47;4425859;32;19981;-75
2022/03/23 05:20:41;;;;;;;;;;;;;;;10.81;29.61;99505.44;4425485;32;20159;-75
2022/03/23 05:23:08;;;;;;;28.75;13.65;;;;;;;10.85;29.42;99517.41;4425664;32;19972;-75
2022/03/23 05:25:35;;;;;;;32.15;14.18;;;;;;;10.22;31.79;99505.72;4425520;32;20114;-75
2022/03/23 05:28:01;;;;;;;;;;;;;;;10.91;30.99;99507.78;4425593;32;20106;-75
2022/03/23 05:30:28;;;;;;;26.30;11.23;;;;;;;12.08;29.41;99506.81;4425544;32;20377;-75
2022/03/23 05:32:55;;;;;;;25.80;11.15;;;;;;;13.22;26.62;99515.75;4425373;32;20141;-75
2022/03/23 05:35:22;;;;;;;28.05;11.85;;;;;;;13.79;25.46;99507.03;4425408;32;20502;-75
2022/03/23 05:37:49;;;;;;;25.23;11.73;;;;;;;14.63;24.56;99511.97;4425508;32;20107;-75
2022/03/23 05:40:17;;;;;;;24.35;12.32;;;;;;;15.41;23.33;99510.78;4425072;32;20168;-75
2022/03/23 05:42:44;;;;;;;25.67;12.52;;;;;;;15.67;24.15;99505.44;4425625;32;20121;-75
2022/03/23 05:45:11;;;;;;;26.80;12.57;;;;;;;17.28;22.57;99520.16;4425341;32;20123;-75
2022/03/23 05:47:39;;;;;;;25.52;12.65;;;;;;;18.38;21.12;99518.22;4425169;32;20411;-75
2022/03/23 05:50:08;;;;;;;30.02;12.70;;;;;;;19.05;19.98;99516.50;4425359;32;20098;-76
2022/03/23 05:52:35;;;;;;;24.95;13.23;;;;;;;19.56;19.57;99523.25;4425381;32;20081;-76
2022/03/23 05:55:05;;;;;;;22.05;10.60;;;;;;;20.19;18.71;99517.88;4424992;32;20089;-76
2022/03/23 05:57:32;;;;;;;24.83;11.40;;;;;;;20.98;16.71;99520.13;4425392;32;20155;-76
2022/03/23 05:59:59;;;;;;;24.40;12.40;;;;;;;21.97;16.51;99515.53;4425159;32;20124;-76
2022/03/23 06:02:26;;;;;;;22.02;10.70;;;;;;;23.15;15.31;99524.12;4425188;32;20138;-76
2022/03/23 06:04:53;;;;;;;19.05;10.13;;;;;;;24.04;15.72;99522.97;4425186;32;20086;-76
2022/03/23 06:07:20;;;;;;;18.98;10.63;;;;;;;25.07;13.42;99525.53;4425258;32;20085;-76
2022/03/23 06:09:47;;;;;;;17.55;9.98;;;;;;;26.11;13.30;99521.53;4424760;32;20082;-76
2022/03/23 06:12:14;;;;;;;19.42;10.70;;;;;;;26.50;11.98;99527.94;4425134;32;20100;-76
2022/03/23 06:14:43;;;;;;;18.23;9.93;;;;;;;26.75;11.80;99526.69;4425227;32;20105;-77
2022/03/23 06:17:11;;;;;;;17.65;9.60;;;;;;;26.76;12.38;99521.25;4424874;32;20462;-77
2022/03/23 06:19:38;;;;;;;18.87;10.55;;;;;;;24.56;14.33;99517.22;4425079;32;20126;-76
2022/03/23 06:22:05;;;;;;;17.67;9.95;;;;;;;23.37;15.65;99516.38;4424851;32;20069;-76
2022/03/23 06:24:32;;;;;;;16.23;9.48;;;;;;;20.66;16.97;99511.63;4424792;32;20149;-76
2022/03/23 06:26:59;;;;;;;18.15;9.85;;;;;;;18.47;19.06;99512.53;4424785;32;20120;-76
2022/03/23 06:29:27;;;;;;;22.83;9.27;;;;;;;17.96;19.76;99513.41;4424335;32;20112;-76
2022/03/23 06:31:54;;;;;;;18.20;9.73;;;;;;;16.42;21.39;99504.91;4424864;32;20148;-76
2022/03/23 06:34:21;;;;;;;16.87;9.27;;;;;;;18.20;19.97;99511.34;4424820;32;20093;-76
2022/03/23 06:36:48;;;;;;;21.27;9.38;;;;;;;19.08;21.37;99516.31;4424402;32;20106;-76
2022/03/23 06:39:15;;;;;;;19.40;10.10;;;;;;;21.17;19.78;99521.63;4424689;32;20427;-76
2022/03/23 06:41:42;;;;;;;19.62;10.30;;;;;;;23.16;17.40;99523.19;4425034;32;20099;-76
2022/03/23 06:44:09;;;;;;;22.08;9.52;;;;;;;24.09;16.21;99524.28;4424488;32;20100;-76
2022/03/23 06:46:36;;;;;;;19.45;10.50;;;;;;;24.27;16.07;99535.25;4424799;32;20169;-76
2022/03/23 06:49:05;;;;;;;19.08;10.88;;;;;;;26.02;14.60;99533.72;4424599;32;20475;-77
2022/03/23 06:51:33;;;;;;;18.98;10.77;;;;;;;27.12;14.07;99540.25;4424432;32;20142;-77
2022/03/23 06:54:00;;;;;;;18.75;10.05;;;;;;;24.36;15.24;99536.37;4424819;32;20094;-76
2022/03/23 06:56:27;;;;;;;19.42;9.30;;;;;;;21.43;16.86;99531.34;4424753;32;20127;-76
2022/03/23 06:58:53;;;;;;;19.08;9.43;;;;;;;17.83;18.88;99525.38;4424293;32;20089;-76
2022/03/23 07:01:20;;;;;;;18.15;9.48;;;;;;;16.91;20.49;99524.47;4424782;32;20165;-75
2022/03/23 07:03:50;;;;;;;25.23;10.63;;;;;;;16.34;21.47;99533.88;4424294;32;20094;-75
2022/03/23 07:06:18;;;;;;;22.08;10.30;;;;;;;17.46;20.94;99537.56;4424550;32;20147;-76
2022/03/23 07:11:31;;;;;;;18.62;9.45;;;;;;;16.69;20.98;99532.41;4424374;32;20103;-75
2022/03/23 07:13:58;;;;;;;23.52;9.95;;;;;;;16.81;21.44;99533.63;4423958;32;20082;-74
2022/03/23 07:16:25;;;;;;;20.50;9.23;;;;;;;16.26;22.23;99538.56;4423379;32;20120;-74
2022/03/23 07:18:52;;;;;;;18.00;8.40;;;;;;;16.09;22.12;99534.06;4423752;32;20121;-74
2022/03/23 07:21:19;;;;;;;19.77;9.80;;;;;;;16.42;22.35;99534.41;4423897;32;20103;-74
2022/03/23 07:23:46;;;;;;;19.35;8.90;;;;;;;17.17;21.79;99543.28;4425714;32;20112;-74
2022/03/23 07:26:15;;;;;;;18.30;7.35;;;;;;;16.30;21.92;99537.53;4425968;32;20129;-74
2022/03/23 07:28:42;;;;;;;16.20;6.97;;;;;;;16.87;21.69;99533.31;4426227;32;20153;-73
2022/03/23 07:31:09;;;;;;;24.73;10.27;;;;;;;16.78;22.11;99538.94;4423783;32;20153;-74
2022/03/23 07:33:36;;;;;;;20.85;9.57;;;;;;;16.76;21.99;99532.97;4424826;32;20479;-76
2022/03/23 07:36:04;;;;;;;22.87;10.75;;;;;;;17.36;21.25;99544.13;4426322;32;20415;-76
2022/03/23 07:38:31;;;;;;;19.62;8.75;;;;;;;17.94;20.67;99533.53;4426202;32;20148;-76
2022/03/23 07:40:58;;;;;;;20.65;10.50;;;;;;;18.21;19.75;99526.94;4425685;32;20156;-75
2022/03/23 07:43:25;;;;;;;22.13;9.45;;;;;;;17.02;21.24;99524.81;4426385;32;20170;-74
2022/03/23 07:45:51;;;;;;;19.33;9.60;;;;;;;15.93;22.19;99530.38;4424012;32;20106;-74
2022/03/23 07:48:20;;;;;;;21.05;10.50;;;;;;;16.43;21.92;99527.44;4422934;32;20185;-74
2022/03/23 07:50:47;;;;;;;20.95;10.63;;;;;;;17.10;21.66;99526.22;4424464;32;20091;-74
2022/03/23 07:53:14;;;;;;;22.42;10.13;;;;;;;16.82;21.63;99526.63;4424814;32;20157;-74
2022/03/23 07:55:41;;;;;;;21.15;10.45;;;;;;;16.15;22.08;99525.97;4424776;32;20104;-74
2022/03/23 07:58:08;;;;;;;21.67;10.25;;;;;;;16.29;21.91;99535.84;4423911;32;20434;-74
2022/03/23 08:00:35;;;;;;;19.15;10.60;;;;;;;16.60;21.75;99530.16;4424576;32;20460;-74
2022/03/23 08:03:03;;;;;;;22.45;10.73;;;;;;;17.07;21.08;99532.44;4424828;32;20124;-74
2022/03/23 08:05:32;;;;;;;29.35;11.27;;;;;;;17.57;21.14;99532.69;4424622;32;20467;-75
2022/03/23 08:07:59;;;;;;;20.40;9.65;;;;;;;18.02;20.37;99523.56;4424628;32;20436;-75
2022/03/23 08:10:26;;;;;;;22.90;10.02;;;;;;;18.20;20.64;99522.66;4424547;32;20121;-76
2022/03/23 08:12:53;;;;;;;22.13;9.93;;;;;;;17.05;21.10;99529.91;4421920;32;20115;-75
2022/03/23 08:17:56;;;;;;;15.63;7.43;;;;;;;18.20;19.93;99537.47;4507820;26;19973;-80
2022/03/23 08:20:32;;;;;;;19.42;10.52;;;;;;;18.56;19.83;99531.28;4437434;32;20468;-80
2022/03/23 08:23:03;;;;;;;19.00;9.13;;;;;;;18.04;20.27;99524.31;4437525;32;20097;-80
2022/03/23 08:25:31;;;;;;;19.35;8.93;;;;;;;18.27;20.12;99519.69;4439922;32;20570;-81
2022/03/23 08:28:02;;;;;;;19.40;9.23;;;;;;;17.99;20.61;99512.44;4438943;32;20457;-81
2022/03/23 08:30:29;;;;;;;19.60;9.90;;;;;;;18.53;21.12;99524.47;4439706;32;20085;-81
2022/03/23 08:32:57;;;;;;;22.10;9.52;;;;;;;17.28;20.79;99509.72;4426107;32;20101;-80
2022/03/23 08:35:25;;;;;;;17.05;8.25;;;;;;;17.77;20.99;99518.72;4437431;32;20097;-80
2022/03/23 08:37:53;;;;;;;19.35;9.73;;;;;;;17.96;20.79;99523.84;4438889;32;20092;-82
2022/03/23 08:40:24;;;;;;;18.27;9.95;;;;;;;18.82;20.24;99528.19;4440351;32;20077;-81
2022/03/23 08:42:51;;;;;;;17.12;9.20;;;;;;;19.29;19.51;99523.00;4440296;32;20448;-80
2022/03/23 08:45:18;;;;;;;18.90;8.93;;;;;;;17.70;20.06;99525.12;4438860;32;20109;-79
2022/03/23 08:47:45;;;;;;;19.00;8.82;;;;;;;18.46;19.99;99525.69;4440039;32;20093;-79
2022/03/23 08:50:13;;;;;;;20.12;9.65;;;;;;;17.49;20.89;99524.38;4440167;32;20089;-79
2022/03/23 08:52:41;;;;;;;21.15;8.57;;;;;;;18.42;20.37;99530.22;4439991;32;20105;-79
2022/03/23 08:55:10;;;;;;;21.00;8.68;;;;;;;18.75;19.88;99534.66;4439148;32;20119;-80
2022/03/23 08:57:37;;;;;;;18.77;9.32;;;;;;;19.56;19.19;99530.28;4439289;32;20167;-81
2022/03/23 09:00:06;;;;;;;19.02;7.87;;;;;;;19.29;19.53;99524.78;4439654;32;20185;-80
2022/03/23 09:02:33;;;;;;;20.52;10.15;;;;;;;20.26;19.17;99528.00;4426327;32;20172;-81
2022/03/23 09:05:00;;;;;;;21.02;10.40;;;;;;;19.60;19.25;99526.56;4438852;32;20472;-80
2022/03/23 09:07:32;;;;;;;21.90;9.85;;;;;;;20.26;18.89;99520.16;4439890;32;20134;-79
2022/03/23 09:10:01;;;;;;;16.27;8.43;;;;;;;20.05;18.94;99517.00;4425660;32;20216;-77
2022/03/23 09:12:29;;;;;;;19.23;9.90;;;;;;;21.28;17.76;99519.19;4440009;32;20105;-79
2022/03/23 09:14:56;;;;;;;20.35;10.13;;;;;;;19.90;19.40;99518.75;4439418;32;20119;-78
2022/03/23 09:17:25;;;;;;;20.40;10.05;;;;;;;20.68;18.68;99517.59;4439578;32;20157;-80
2022/03/23 09:19:52;;;;;;;19.30;9.70;;;;;;;21.55;18.02;99513.94;4439252;32;20089;-79
2022/03/23 09:22:21;;;;;;;20.67;10.25;;;;;;;21.79;17.12;99517.59;4440707;32;20121;-82
2022/03/23 09:24:48;;;;;;;18.98;8.73;;;;;;;21.34;18.11;99517.00;4440638;32;20161;-86
2022/03/23 09:27:15;;;;;;;20.35;10.70;;;;;;;20.85;18.12;99513.97;4440013;32;20107;-87
2022/03/23 09:29:42;;;;;;;21.37;11.20;;;;;;;20.89;18.14;99510.22;4439461;32;20412;-82
2022/03/23 09:32:12;;;;;;;17.00;8.35;;;;;;;21.52;18.04;99517.62;4439892;32;20490;-76
2022/03/23 09:34:39;;;;;;;17.20;8.38;;;;;;;21.28;18.38;99508.69;4439070;32;20493;-80
2022/03/23 09:39:52;;;;;;;24.70;9.82;;;;;;;21.35;18.15;99509.97;4439254;32;20461;-82
2022/03/23 09:42:19;;;;;;;23.65;10.18;;;;;;;21.86;18.01;99507.53;4439749;32;20109;-81
2022/03/23 09:44:47;;;;;;;20.17;10.02;;;;;;;22.42;16.67;99511.63;4439052;32;20151;-80
2022/03/23 09:47:14;;;;;;;19.40;10.38;;;;;;;20.99;17.76;99500.81;4438785;32;20179;-80
2022/03/23 09:49:42;;;;;;;18.85;8.82;;;;;;;21.17;17.80;99501.47;4438131;32;20141;-81
2022/03/23 09:52:09;;;;;;;20.15;9.15;;;;;;;21.35;17.48;99494.22;4438361;32;20149;-79
2022/03/23 09:54:36;;;;;;;17.75;8.82;;;;;;;22.13;16.48;99497.03;4437457;32;20127;-81
2022/03/23 09:57:06;;;;;;;14.98;6.90;;;;;;;22.70;15.76;99497.44;4438366;32;20154;-81
2022/03/23 09:59:33;;;;;;;20.58;9.25;;;;;;;23.21;15.66;99488.63;4438024;32;20150;-81
2022/03/23 10:02:00;;;;;;;20.80;9.88;;;;;;;22.06;16.25;99498.34;4424222;32;20101;-81
2022/03/23 10:04:48;;;;;;;17.87;9.35;;;;;;;22.52;15.94;99499.53;4437551;32;20153;-81
2022/03/23 10:07:23;;;;;;;17.23;9.50;;;;;;;22.93;15.89;99497.66;4438543;32;20084;-78
2022/03/23 10:10:19;;;;;;;18.37;8.82;;;;;;;22.01;16.00;99492.53;4438139;32;20104;-77
2022/03/23 10:13:11;;;;;;;18.62;8.95;;;;;;;23.05;15.50;99489.72;4383759;32;20124;-78
2022/03/23 10:15:56;;;;;;;19.23;8.93;;;;;;;22.86;15.95;99494.59;4438883;32;20153;-77
2022/03/23 10:18:45;;;;;;;18.48;10.00;;;;;;;23.16;14.93;99491.56;4425171;32;20443;-78
2022/03/23 10:21:12;;;;;;;16.45;8.68;;;;;;;23.39;15.46;99484.66;4439361;32;20501;-77
2022/03/23 10:23:39;;;;;;;18.60;7.95;;;;;;;22.88;15.63;99490.09;4439341;32;20109;-79
2022/03/23 10:26:13;;;;;;;20.20;9.40;;;;;;;23.97;14.06;99484.81;4438950;32;20107;-77
2022/03/23 10:28:41;;;;;;;16.90;8.60;;;;;;;24.28;14.03;99489.44;4439136;32;20085;-79
2022/03/23 10:31:18;;;;;;;16.98;9.00;;;;;;;23.10;15.16;99481.50;4438964;32;20081;-77
2022/03/23 10:33:57;;;;;;;16.30;8.68;;;;;;;23.60;14.98;99471.72;4439512;32;20509;-77
2022/03/23 10:36:27;;;;;;;17.92;8.52;;;;;;;23.37;14.25;99481.28;4438978;32;20597;-77
2022/03/23 10:39:03;;;;;;;15.98;8.75;;;;;;;22.79;15.40;99482.81;4439081;32;20160;-77
2022/03/23 10:41:30;;;;;;;16.80;8.93;;;;;;;23.44;14.15;99473.78;4425200;32;20133;-78
2022/03/23 10:43:58;;;;;;;14.30;6.62;;;;;;;23.70;14.12;99480.63;4438638;32;20443;-78
2022/03/23 10:46:25;;;;;;;18.73;7.80;;;;;;;24.15;13.98;99471.09;4439087;32;20112;-77
2022/03/23 10:49:01;;;;;;;13.62;6.15;;;;;;;23.01;14.87;99466.38;4439146;32;20153;-78
2022/03/23 10:51:34;;;;;;;16.62;6.05;;;;;;;23.31;14.36;99472.06;4424905;32;20144;-77
2022/03/23 10:54:14;;;;;;;16.12;7.25;;;;;;;24.02;13.14;99474.75;4438866;32;20127;-77
2022/03/23 10:56:42;;;;;;;16.05;7.30;;;;;;;24.38;12.83;99471.16;4438238;32;20111;-77
2022/03/23 10:59:23;;;;;;;13.57;5.70;;;;;;;23.82;14.21;99465.69;4437920;32;20104;-76
2022/03/23 11:02:10;;;;;;;15.38;7.55;;;;;;;23.22;13.36;99466.63;4438878;32;20111;-76
2022/03/23 11:04:51;;;;;;;15.32;6.53;;;;;;;24.06;13.30;99457.78;4438208;32;20106;-77
2022/03/23 11:07:35;;;;;;;11.77;5.55;;;;;;;23.45;13.03;99454.41;4438977;32;20109;-79
2022/03/23 11:15:46;;;;;;;12.02;5.22;;;;;;;23.01;13.77;99455.84;4438291;32;20132;-79
2022/03/23 11:18:18;;;;;;;13.13;6.15;;;;;;;23.56;12.81;99454.44;4438266;32;20514;-79
2022/03/23 11:20:54;;;;;;;13.73;6.45;;;;;;;23.55;12.70;99448.34;4439045;32;20429;-78
2022/03/23 11:23:25;;;;;;;11.60;5.53;;;;;;;24.36;11.66;99450.19;4438821;32;20136;-78
2022/03/23 11:25:56;;;;;;;15.32;6.30;;;;;;;24.46;11.98;99453.78;4437442;32;20153;-78
2022/03/23 11:28:28;;;;;;;13.27;6.12;;;;;;;25.48;11.43;99439.47;4438246;32;20382;-78
2022/03/23 11:30:57;;;;;;;14.10;6.70;;;;;;;25.63;11.41;99445.31;4438797;32;20757;-78
2022/03/23 11:33:25;;;;;;;13.52;7.00;;;;;;;25.66;11.46;99445.03;4424385;32;20257;-78
2022/03/23 11:35:53;;;;;;;13.65;6.97;;;;;;;25.52;11.99;99438.25;4437663;32;20101;-78
2022/03/23 11:38:27;;;;;;;14.50;6.82;;;;;;;23.94;12.60;99435.81;4438164;32;20115;-78
2022/03/23 11:40:56;;;;;;;13.85;7.32;;;;;;;24.45;12.87;99428.34;4438367;32;20077;-78
2022/03/23 11:43:25;;;;;;;15.35;7.47;;;;;;;25.06;12.41;99428.78;4438463;32;20101;-80
2022/03/23 11:46:12;;;;;;;13.25;6.57;;;;;;;26.61;11.09;99424.63;4437381;32;20163;-81
2022/03/23 11:48:54;;;;;;;19.35;7.18;;;;;;;26.29;11.28;99421.25;4437874;32;20116;-84
2022/03/23 11:51:34;;;;;;;12.43;6.37;;;;;;;25.32;11.84;99417.94;4438701;32;20145;-85
2022/03/23 11:54:10;;;;;;;11.70;4.95;;;;;;;25.26;12.02;99413.13;4425149;32;20085;-83
2022/03/23 11:56:46;;;;;;;16.77;7.22;;;;;;;24.84;12.26;99412.97;4427373;32;20102;-84
2022/03/23 11:59:23;;;;;;;15.13;7.28;;;;;;;24.47;13.17;99401.84;4438036;32;20437;-85
2022/03/23 12:01:51;;;;;;;13.40;6.95;;;;;;;24.97;12.05;99399.59;4438110;32;20168;-84
2022/03/23 12:04:21;;;;;;;15.00;7.20;;;;;;;24.19;12.66;99396.06;4437274;32;20146;-84